Williamsburg, Nebraska
Current Conditions -  °F | °C
As of 3:15 PM on Friday 24 Oct 2014 (Local Time) from KHDE Reporting Station
Clear Clear  
Wind Chill: 83°   Ceiling: Unl
Heat Index: 83°   Visibility: 10mi
Dew Point: 32°   Wind: 0mph
Humidity: 16%   Direction: NA
Pressure: 29.96"   Gusts: NA
Location:  40.5759°N, 99.537°W
Report Text: KHDE 242015Z AUTO 00000KT 10SM CLR 28/00 A2996 RMK AO2 T02810000
Loading
Personal Weather Stations






























Interactive Weather Map
Tropical Storm Tracking
New forecast layout! Learn more

10-Day Weather Forecast

Advertisements
Track Severe Weather on mobile